createdAt,value
2023-05-30T00:00:14.345Z,15.89
2023-05-30T00:02:45.466Z,15.86
2023-05-30T00:05:13.583Z,15.88
2023-05-30T00:07:40.992Z,15.83
2023-05-30T00:10:08.207Z,15.80
2023-05-30T00:12:36.472Z,15.86
2023-05-30T00:15:06.809Z,15.80
2023-05-30T00:17:34.084Z,15.70
2023-05-30T00:20:01.272Z,15.69
2023-05-30T00:22:28.208Z,15.64
2023-05-30T00:24:56.699Z,15.53
2023-05-30T00:27:23.516Z,15.53
2023-05-30T00:29:50.390Z,15.55
2023-05-30T00:32:17.310Z,15.46
2023-05-30T00:34:44.220Z,15.36
2023-05-30T00:37:11.220Z,15.41
2023-05-30T00:39:38.138Z,15.40
2023-05-30T00:42:05.392Z,15.37
2023-05-30T00:44:32.315Z,15.38
2023-05-30T00:47:00.064Z,15.40
2023-05-30T00:49:28.095Z,15.44
2023-05-30T00:51:55.598Z,15.35
2023-05-30T00:54:23.448Z,15.45
2023-05-30T00:56:51.885Z,15.46
2023-05-30T00:59:19.178Z,15.38
2023-05-30T01:01:46.614Z,15.37
2023-05-30T01:04:13.723Z,15.35
2023-05-30T01:06:40.843Z,15.37
2023-05-30T01:09:07.971Z,15.20
2023-05-30T01:11:46.980Z,15.15
2023-05-30T01:14:40.341Z,15.20
2023-05-30T01:17:24.478Z,15.15
2023-05-30T01:20:09.297Z,15.09
2023-05-30T01:23:07.797Z,15.08
2023-05-30T01:25:54.045Z,15.04
2023-05-30T01:28:23.434Z,14.95
2023-05-30T01:30:52.832Z,14.91
2023-05-30T01:33:23.649Z,14.90
2023-05-30T01:35:51.729Z,14.90
2023-05-30T01:38:18.805Z,14.84
2023-05-30T01:40:51.389Z,14.87
2023-05-30T01:43:50.136Z,14.83
2023-05-30T01:46:32.894Z,14.79
2023-05-30T01:49:27.627Z,14.84
2023-05-30T01:52:08.410Z,14.76
2023-05-30T01:54:38.117Z,14.72
2023-05-30T01:57:12.806Z,14.78
2023-05-30T01:59:40.510Z,14.73
2023-05-30T02:02:09.490Z,14.77
2023-05-30T02:04:36.913Z,14.76
2023-05-30T02:07:04.408Z,14.73
2023-05-30T02:09:31.401Z,14.66
2023-05-30T02:11:58.598Z,14.64
2023-05-30T02:14:25.482Z,14.64
2023-05-30T02:16:52.718Z,14.59
2023-05-30T02:19:21.146Z,14.66
2023-05-30T02:21:48.107Z,14.58
2023-05-30T02:24:15.028Z,14.48
2023-05-30T02:26:41.956Z,14.50
2023-05-30T02:29:09.052Z,14.50
2023-05-30T02:31:36.162Z,14.45
2023-05-30T02:34:04.007Z,14.45
2023-05-30T02:36:31.615Z,14.44
2023-05-30T02:38:58.467Z,14.43
2023-05-30T02:41:26.114Z,14.42
2023-05-30T02:43:53.174Z,14.42
2023-05-30T02:46:20.106Z,14.39
2023-05-30T02:48:47.014Z,14.39
2023-05-30T02:51:14.124Z,14.29
2023-05-30T02:53:41.888Z,14.28
2023-05-30T02:56:08.702Z,14.22
2023-05-30T02:58:35.571Z,14.15
2023-05-30T03:01:02.488Z,14.12
2023-05-30T03:03:30.880Z,14.10
2023-05-30T03:05:58.601Z,14.09
2023-05-30T03:08:26.387Z,14.11
2023-05-30T03:10:53.654Z,14.09
2023-05-30T03:13:21.102Z,14.04
2023-05-30T03:15:48.655Z,14.02
2023-05-30T03:18:15.936Z,13.97
2023-05-30T03:20:43.755Z,14.04
2023-05-30T03:23:10.904Z,14.03
2023-05-30T03:25:37.874Z,14.06
2023-05-30T03:28:07.599Z,14.10
2023-05-30T03:30:34.941Z,14.14
2023-05-30T03:33:02.557Z,14.18
2023-05-30T03:35:29.640Z,14.16
2023-05-30T03:37:56.528Z,14.15
2023-05-30T03:40:23.434Z,14.13
2023-05-30T03:42:51.322Z,14.24
2023-05-30T03:45:18.247Z,14.27
2023-05-30T03:47:45.201Z,14.29
2023-05-30T03:50:12.107Z,14.23
2023-05-30T03:52:38.946Z,14.37
2023-05-30T03:55:06.298Z,14.43
2023-05-30T03:57:33.242Z,14.49
2023-05-30T04:00:00.177Z,14.56
2023-05-30T04:02:27.433Z,14.69
2023-05-30T04:04:54.490Z,14.72
2023-05-30T04:07:21.580Z,14.74
2023-05-30T04:09:48.580Z,14.91
2023-05-30T04:12:15.568Z,14.97
2023-05-30T04:14:42.456Z,15.04
2023-05-30T04:17:09.368Z,15.16
2023-05-30T04:19:36.251Z,15.28
2023-05-30T04:22:03.196Z,15.34
2023-05-30T04:24:32.912Z,15.44
2023-05-30T04:26:59.898Z,15.54
2023-05-30T04:29:26.842Z,15.64
2023-05-30T04:31:53.834Z,15.73
2023-05-30T04:34:20.791Z,15.89
2023-05-30T04:36:47.751Z,16.03
2023-05-30T04:39:14.714Z,16.15
2023-05-30T04:41:41.837Z,16.30
2023-05-30T04:44:08.707Z,16.33
2023-05-30T04:46:37.146Z,16.44
2023-05-30T04:49:04.283Z,16.52
2023-05-30T04:51:31.540Z,16.58
2023-05-30T04:53:59.133Z,16.65
2023-05-30T04:56:27.823Z,16.77
2023-05-30T04:58:54.940Z,16.86
2023-05-30T05:01:25.212Z,16.95
2023-05-30T05:03:52.827Z,17.06
2023-05-30T05:06:19.798Z,17.20
2023-05-30T05:08:46.720Z,17.29
2023-05-30T05:11:14.565Z,17.39
2023-05-30T05:13:41.494Z,17.52
2023-05-30T05:16:08.482Z,17.59
2023-05-30T05:18:35.358Z,17.72
2023-05-30T05:21:02.783Z,17.80
2023-05-30T05:23:30.449Z,17.86
2023-05-30T05:25:58.006Z,17.96
2023-05-30T05:28:25.146Z,17.97
2023-05-30T05:30:52.115Z,18.13
2023-05-30T05:33:19.643Z,18.24
2023-05-30T05:35:47.596Z,18.38
2023-05-30T05:38:14.808Z,18.55
2023-05-30T05:40:42.576Z,18.54
2023-05-30T05:43:09.666Z,18.62
2023-05-30T05:45:36.638Z,18.68
2023-05-30T05:48:03.698Z,18.70
2023-05-30T05:50:31.786Z,18.81
2023-05-30T05:52:58.689Z,18.91
2023-05-30T05:55:25.632Z,19.00
2023-05-30T05:57:55.268Z,19.00
2023-05-30T06:00:23.089Z,19.10
2023-05-30T06:02:50.322Z,19.17
2023-05-30T06:05:17.420Z,19.15
2023-05-30T06:07:44.551Z,19.25
2023-05-30T06:10:11.704Z,19.29
2023-05-30T06:12:38.665Z,19.39
2023-05-30T06:15:07.433Z,19.42
2023-05-30T06:17:34.433Z,19.61
2023-05-30T06:20:01.449Z,19.76
2023-05-30T06:22:28.350Z,19.89
2023-05-30T06:24:55.198Z,20.01
2023-05-30T06:27:22.351Z,20.00
2023-05-30T06:29:49.223Z,20.20
2023-05-30T06:32:17.108Z,20.41
2023-05-30T06:34:47.025Z,20.46
2023-05-30T06:37:17.263Z,20.67
2023-05-30T06:39:44.157Z,20.77
2023-05-30T06:42:11.954Z,20.91
2023-05-30T06:44:39.528Z,20.88
2023-05-30T06:47:07.288Z,20.74
2023-05-30T06:49:34.340Z,20.93
2023-05-30T06:52:01.179Z,21.00
2023-05-30T06:54:27.990Z,21.05
2023-05-30T06:56:54.891Z,21.13
2023-05-30T06:59:21.837Z,21.26
2023-05-30T07:01:49.003Z,21.25
2023-05-30T07:04:16.131Z,21.30
2023-05-30T07:06:43.026Z,21.38
2023-05-30T07:09:09.887Z,21.39
2023-05-30T07:11:36.949Z,21.43
2023-05-30T07:14:03.866Z,21.58
2023-05-30T07:16:32.497Z,21.31
2023-05-30T07:19:11.693Z,21.40
2023-05-30T07:21:40.264Z,21.56
2023-05-30T07:24:07.339Z,21.56
2023-05-30T07:26:35.838Z,21.71
2023-05-30T07:29:03.475Z,21.84
2023-05-30T07:31:30.636Z,21.80
2023-05-30T07:33:57.966Z,21.96
2023-05-30T07:36:24.929Z,22.11
2023-05-30T07:38:52.257Z,22.07
2023-05-30T07:41:19.196Z,22.00
2023-05-30T07:43:46.143Z,22.03
2023-05-30T07:46:13.059Z,22.09
2023-05-30T07:48:42.096Z,22.32
2023-05-30T07:51:10.329Z,22.38
2023-05-30T07:53:38.043Z,22.57
2023-05-30T07:56:05.163Z,22.70
2023-05-30T07:58:32.133Z,22.78
2023-05-30T08:00:59.799Z,22.86
2023-05-30T08:03:27.456Z,22.96
2023-05-30T08:05:54.580Z,23.07
2023-05-30T08:08:21.480Z,23.17
2023-05-30T08:10:48.449Z,23.18
2023-05-30T08:13:15.786Z,23.11
2023-05-30T08:15:42.624Z,23.02
2023-05-30T08:18:09.690Z,23.36
2023-05-30T08:20:39.654Z,22.91
2023-05-30T08:23:06.771Z,23.06
2023-05-30T08:25:34.908Z,23.01
2023-05-30T08:28:02.246Z,22.96
2023-05-30T08:30:29.599Z,23.28
2023-05-30T08:32:56.661Z,23.51
2023-05-30T08:35:23.530Z,23.89
2023-05-30T08:37:50.355Z,23.70
2023-05-30T08:40:18.251Z,23.53
2023-05-30T08:42:45.138Z,23.64
2023-05-30T08:45:12.563Z,23.95
2023-05-30T08:47:39.894Z,24.21
2023-05-30T08:50:10.741Z,24.81
2023-05-30T08:52:39.662Z,24.72
2023-05-30T08:55:16.277Z,24.77
2023-05-30T08:58:30.295Z,24.67
2023-05-30T09:00:58.250Z,24.73
2023-05-30T09:03:26.851Z,24.68
2023-05-30T09:05:55.018Z,25.92
2023-05-30T09:08:26.494Z,26.45
2023-05-30T09:10:55.490Z,26.53
2023-05-30T09:13:23.156Z,26.76
2023-05-30T09:15:50.600Z,26.63
2023-05-30T09:18:17.770Z,26.63
2023-05-30T09:20:45.144Z,26.08
2023-05-30T09:23:12.281Z,25.67
2023-05-30T09:25:47.816Z,25.43
2023-05-30T09:28:15.698Z,25.55
2023-05-30T09:30:59.772Z,25.48
2023-05-30T09:33:46.209Z,25.16
2023-05-30T09:36:24.929Z,25.30
2023-05-30T09:38:57.575Z,26.29
2023-05-30T09:41:27.068Z,25.72
2023-05-30T09:43:55.442Z,26.19
2023-05-30T09:46:30.266Z,25.86
2023-05-30T09:48:58.556Z,26.81
2023-05-30T09:54:14.461Z,26.78
2023-05-30T09:54:47.401Z,26.98
2023-05-30T09:56:42.481Z,26.21
2023-05-30T09:59:14.849Z,26.22
2023-05-30T10:01:43.063Z,25.65
2023-05-30T10:04:21.486Z,26.04
2023-05-30T10:06:50.371Z,25.99
2023-05-30T10:09:17.253Z,26.32
2023-05-30T10:11:45.200Z,25.54
2023-05-30T10:14:13.300Z,24.80
2023-05-30T10:16:50.182Z,25.39
2023-05-30T10:19:27.167Z,25.64
2023-05-30T10:22:00.150Z,25.32
2023-05-30T10:24:27.832Z,26.56
2023-05-30T10:27:03.055Z,27.85
2023-05-30T10:29:33.485Z,28.07
2023-05-30T10:32:04.667Z,29.29
2023-05-30T10:34:45.779Z,30.20
2023-05-30T10:37:13.463Z,30.52
2023-05-30T10:39:49.679Z,31.14
2023-05-30T10:42:30.418Z,29.79
2023-05-30T10:45:11.685Z,29.87
2023-05-30T10:47:44.669Z,30.32
2023-05-30T10:50:20.350Z,30.23
2023-05-30T10:52:48.528Z,30.34
2023-05-30T10:55:15.942Z,28.96
2023-05-30T10:57:43.343Z,28.63
2023-05-30T11:00:16.745Z,28.90
2023-05-30T11:02:44.994Z,28.01
2023-05-30T11:05:12.122Z,29.02
2023-05-30T11:07:41.505Z,29.65
2023-05-30T11:10:11.914Z,30.35
2023-05-30T11:12:46.628Z,28.58
2023-05-30T11:15:18.049Z,29.87
2023-05-30T11:17:45.501Z,29.39
2023-05-30T11:20:16.554Z,29.50
2023-05-30T11:23:02.804Z,31.50
2023-05-30T11:25:31.279Z,31.86
2023-05-30T11:28:07.559Z,31.38
2023-05-30T11:30:38.830Z,30.82
2023-05-30T11:33:10.812Z,29.65
2023-05-30T11:35:38.760Z,29.50
2023-05-30T11:38:07.442Z,29.70
2023-05-30T11:40:34.363Z,28.24
2023-05-30T11:43:01.377Z,29.84
2023-05-30T11:45:30.700Z,30.66
2023-05-30T11:48:08.828Z,29.91
2023-05-30T11:50:40.669Z,30.47
2023-05-30T11:53:12.339Z,31.33
2023-05-30T11:55:39.306Z,30.84
2023-05-30T11:58:06.412Z,29.29
2023-05-30T12:00:33.551Z,28.98
2023-05-30T12:03:01.482Z,28.69
2023-05-30T12:05:29.741Z,29.46
2023-05-30T12:07:56.874Z,29.53
2023-05-30T12:10:30.659Z,30.64
2023-05-30T12:12:57.711Z,30.70
2023-05-30T12:15:24.589Z,30.47
2023-05-30T12:17:53.133Z,29.96
2023-05-30T12:20:22.220Z,28.93
2023-05-30T12:22:50.314Z,28.89
2023-05-30T12:25:17.304Z,29.78
2023-05-30T12:27:51.230Z,29.67
2023-05-30T12:30:19.604Z,28.54
2023-05-30T12:32:46.942Z,27.23
2023-05-30T12:35:15.176Z,27.32
2023-05-30T12:37:42.313Z,28.27
2023-05-30T12:40:10.266Z,30.02
2023-05-30T12:42:37.564Z,31.96
2023-05-30T12:45:08.595Z,32.49
2023-05-30T12:47:38.748Z,32.32
2023-05-30T12:50:07.424Z,32.65
2023-05-30T12:52:34.581Z,31.72
2023-05-30T12:55:01.751Z,32.15
2023-05-30T12:57:29.957Z,31.03
2023-05-30T12:59:57.432Z,30.93
2023-05-30T13:02:27.397Z,31.65
2023-05-30T13:04:55.781Z,31.09
2023-05-30T13:07:23.128Z,29.74
2023-05-30T13:09:50.667Z,28.76
2023-05-30T13:12:18.969Z,27.24
2023-05-30T13:14:47.684Z,27.04
2023-05-30T13:17:14.871Z,27.27
2023-05-30T13:19:41.879Z,27.52
2023-05-30T13:22:11.421Z,27.46
2023-05-30T13:24:38.973Z,27.53
2023-05-30T13:27:07.570Z,27.25
2023-05-30T13:29:35.157Z,26.19
2023-05-30T13:32:02.732Z,24.67
2023-05-30T13:34:30.602Z,25.38
2023-05-30T13:36:57.830Z,25.44
2023-05-30T13:39:24.873Z,25.67
2023-05-30T13:41:52.377Z,25.50
2023-05-30T13:44:19.327Z,25.57
2023-05-30T13:46:47.211Z,25.49
2023-05-30T13:49:14.577Z,25.43
2023-05-30T13:51:41.657Z,25.00
2023-05-30T13:54:08.680Z,24.56
2023-05-30T13:56:36.559Z,24.53
2023-05-30T13:59:03.453Z,23.99
2023-05-30T14:01:31.338Z,24.14
2023-05-30T14:03:58.504Z,23.95
2023-05-30T14:06:25.978Z,23.57
2023-05-30T14:08:53.892Z,23.23
2023-05-30T14:11:22.623Z,23.08
2023-05-30T14:13:50.519Z,23.02
2023-05-30T14:16:18.030Z,22.57
2023-05-30T14:18:47.443Z,22.41
2023-05-30T14:21:15.091Z,21.67
2023-05-30T14:23:43.070Z,21.45
2023-05-30T14:26:10.262Z,20.98
2023-05-30T14:28:40.423Z,21.19
2023-05-30T14:31:09.504Z,20.78
2023-05-30T14:33:36.429Z,20.60
2023-05-30T14:36:03.538Z,20.26
2023-05-30T14:38:30.577Z,20.16
2023-05-30T14:40:58.009Z,20.11
2023-05-30T14:43:25.188Z,20.16
2023-05-30T14:45:52.159Z,19.96
2023-05-30T14:48:19.252Z,19.92
2023-05-30T14:50:46.383Z,19.71
2023-05-30T14:53:13.419Z,19.66
2023-05-30T14:55:40.554Z,19.47
2023-05-30T14:58:07.702Z,19.19
2023-05-30T15:00:35.502Z,19.25
2023-05-30T15:03:02.670Z,19.31
2023-05-30T15:05:29.814Z,18.96
2023-05-30T15:07:56.779Z,19.21
2023-05-30T15:10:23.817Z,19.08
2023-05-30T15:12:52.306Z,19.13
2023-05-30T15:15:19.660Z,19.11
2023-05-30T15:17:46.601Z,19.33
2023-05-30T15:20:13.600Z,19.16
2023-05-30T15:22:41.372Z,18.91
2023-05-30T15:25:08.769Z,19.01
2023-05-30T15:27:36.108Z,19.09
2023-05-30T15:30:03.291Z,19.14
2023-05-30T15:32:30.320Z,19.34
2023-05-30T15:34:57.347Z,19.14
2023-05-30T15:37:24.277Z,18.93
2023-05-30T15:39:51.284Z,19.17
2023-05-30T15:42:21.676Z,18.99
2023-05-30T15:44:49.092Z,18.71
2023-05-30T15:47:16.022Z,18.56
2023-05-30T15:49:43.188Z,18.68
2023-05-30T15:52:10.781Z,18.72
2023-05-30T15:54:37.709Z,18.87
2023-05-30T15:57:04.930Z,18.98
2023-05-30T15:59:31.991Z,18.57
2023-05-30T16:01:59.830Z,18.75
2023-05-30T16:04:26.847Z,18.78
2023-05-30T16:06:55.107Z,18.86
2023-05-30T16:09:22.116Z,18.77
2023-05-30T16:11:49.286Z,18.97
2023-05-30T16:14:16.730Z,18.94
2023-05-30T16:16:43.867Z,19.16
2023-05-30T16:19:10.964Z,19.26
2023-05-30T16:21:38.212Z,19.24
2023-05-30T16:24:05.652Z,19.36
2023-05-30T16:26:32.781Z,19.13
2023-05-30T16:28:59.735Z,19.25
2023-05-30T16:31:26.933Z,19.39
2023-05-30T16:33:54.155Z,19.51
2023-05-30T16:36:22.512Z,19.51
2023-05-30T16:38:49.483Z,19.44
2023-05-30T16:41:16.961Z,19.41
2023-05-30T16:43:44.087Z,19.24
2023-05-30T16:46:11.771Z,19.49
2023-05-30T16:48:38.871Z,19.53
2023-05-30T16:51:06.167Z,19.70
2023-05-30T16:53:35.323Z,19.78
2023-05-30T16:56:16.609Z,19.91
2023-05-30T16:58:46.310Z,20.11
2023-05-30T17:01:14.241Z,20.28
2023-05-30T17:03:41.823Z,20.10
2023-05-30T17:06:12.604Z,20.23
2023-05-30T17:08:39.756Z,20.39
2023-05-30T17:11:07.042Z,19.77
2023-05-30T17:13:34.343Z,19.89
2023-05-30T17:16:01.868Z,19.58
2023-05-30T17:18:29.014Z,19.81
2023-05-30T17:20:59.407Z,19.87
2023-05-30T17:23:27.786Z,20.05
2023-05-30T17:26:02.166Z,19.80
2023-05-30T17:28:30.277Z,19.84
2023-05-30T17:30:57.562Z,19.83
2023-05-30T17:33:24.915Z,19.70
2023-05-30T17:35:52.646Z,19.67
2023-05-30T17:38:19.770Z,19.46
2023-05-30T17:40:46.714Z,19.51
2023-05-30T17:43:14.201Z,19.54
2023-05-30T17:45:41.313Z,19.25
2023-05-30T17:48:11.983Z,19.34
2023-05-30T17:50:40.434Z,19.30
2023-05-30T17:53:07.659Z,19.26
2023-05-30T17:55:34.883Z,19.12
2023-05-30T17:58:02.578Z,18.98
2023-05-30T18:00:31.080Z,18.97
2023-05-30T18:02:58.707Z,18.78
2023-05-30T18:05:25.856Z,18.77
2023-05-30T18:07:53.099Z,18.60
2023-05-30T18:10:20.226Z,18.57
2023-05-30T18:12:47.164Z,18.53
2023-05-30T18:15:14.495Z,18.65
2023-05-30T18:17:41.640Z,18.60
2023-05-30T18:20:09.782Z,18.54
2023-05-30T18:22:36.917Z,18.55
2023-05-30T18:25:04.214Z,18.51
2023-05-30T18:27:31.276Z,18.49
2023-05-30T18:29:58.580Z,18.43
2023-05-30T18:32:26.168Z,18.11
2023-05-30T18:34:53.521Z,18.09
2023-05-30T18:37:20.674Z,18.02
2023-05-30T18:39:49.142Z,17.84
2023-05-30T18:42:16.352Z,17.96
2023-05-30T18:44:43.572Z,17.80
2023-05-30T18:47:11.859Z,17.81
2023-05-30T18:49:39.838Z,17.72
2023-05-30T18:52:07.066Z,17.67
2023-05-30T18:54:35.248Z,17.65
2023-05-30T18:57:03.010Z,17.45
2023-05-30T18:59:30.575Z,17.67
2023-05-30T19:01:57.772Z,17.63
2023-05-30T19:04:25.012Z,17.66
2023-05-30T19:06:57.017Z,17.61
2023-05-30T19:09:24.627Z,17.49
2023-05-30T19:11:52.058Z,17.66
2023-05-30T19:14:20.073Z,17.49
2023-05-30T19:16:47.255Z,17.58
2023-05-30T19:19:14.342Z,17.66
2023-05-30T19:21:41.445Z,17.63
2023-05-30T19:24:08.440Z,17.42
2023-05-30T19:26:35.995Z,17.34
2023-05-30T19:29:03.198Z,17.50
2023-05-30T19:31:30.453Z,17.48
2023-05-30T19:33:57.733Z,17.49
2023-05-30T19:36:24.576Z,17.39
2023-05-30T19:38:51.604Z,17.44
2023-05-30T19:41:18.875Z,17.47
2023-05-30T19:43:45.946Z,17.44
2023-05-30T19:46:13.038Z,17.40
2023-05-30T19:48:40.148Z,17.40
2023-05-30T19:51:07.212Z,17.30
2023-05-30T19:53:34.207Z,17.39
2023-05-30T19:56:01.237Z,17.30
2023-05-30T19:58:28.267Z,17.30
2023-05-30T20:00:55.746Z,17.33
2023-05-30T20:03:23.758Z,17.52
2023-05-30T20:05:50.747Z,17.48
2023-05-30T20:08:17.649Z,17.40
2023-05-30T20:10:44.886Z,17.39
2023-05-30T20:13:11.949Z,17.51
2023-05-30T20:15:39.119Z,17.40
2023-05-30T20:18:08.779Z,17.37
2023-05-30T20:20:36.639Z,17.50
2023-05-30T20:23:03.628Z,17.39
2023-05-30T20:25:30.850Z,17.41
2023-05-30T20:27:57.855Z,17.26
2023-05-30T20:32:52.445Z,17.36
2023-05-30T20:35:19.791Z,17.39
2023-05-30T20:37:46.785Z,17.23
2023-05-30T20:40:13.760Z,17.27
2023-05-30T20:42:41.589Z,17.25
2023-05-30T20:45:09.916Z,17.27
2023-05-30T20:47:36.908Z,17.26
2023-05-30T20:50:05.179Z,17.15
2023-05-30T20:52:32.411Z,17.12
2023-05-30T20:54:59.390Z,17.14
2023-05-30T20:57:26.729Z,17.09
2023-05-30T20:59:54.583Z,16.98
2023-05-30T21:02:21.998Z,17.15
2023-05-30T21:04:49.995Z,17.05
2023-05-30T21:07:17.106Z,16.96
2023-05-30T21:09:46.696Z,17.02
2023-05-30T21:12:13.684Z,16.74
2023-05-30T21:14:40.589Z,17.00
2023-05-30T21:17:10.159Z,16.83
2023-05-30T21:19:37.315Z,16.92
2023-05-30T21:22:04.602Z,16.83
2023-05-30T21:24:31.872Z,16.83
2023-05-30T21:26:58.806Z,16.80
2023-05-30T21:29:25.828Z,16.66
2023-05-30T21:31:52.793Z,16.67
2023-05-30T21:34:19.775Z,16.58
2023-05-30T21:36:46.758Z,16.56
2023-05-30T21:39:14.060Z,16.59
2023-05-30T21:41:41.028Z,16.49
2023-05-30T21:44:07.986Z,16.42
2023-05-30T21:46:37.422Z,16.52
2023-05-30T21:49:06.805Z,16.38
2023-05-30T21:51:33.767Z,16.34
2023-05-30T21:54:03.756Z,16.52
2023-05-30T21:56:31.535Z,16.49
2023-05-30T21:58:59.981Z,16.50
2023-05-30T22:01:27.435Z,16.52
2023-05-30T22:03:54.502Z,16.38
2023-05-30T22:06:21.944Z,16.53
2023-05-30T22:08:50.592Z,16.44
2023-05-30T22:11:17.568Z,16.50
2023-05-30T22:13:44.554Z,16.37
2023-05-30T22:16:11.521Z,16.45
2023-05-30T22:18:38.443Z,16.47
2023-05-30T22:21:05.563Z,16.44
2023-05-30T22:23:32.577Z,16.39
2023-05-30T22:25:59.594Z,16.33
2023-05-30T22:28:26.672Z,16.30
2023-05-30T22:30:53.779Z,16.27
2023-05-30T22:33:20.817Z,16.21
2023-05-30T22:35:47.899Z,16.29
2023-05-30T22:38:14.833Z,16.25
2023-05-30T22:40:41.780Z,16.21
2023-05-30T22:43:08.741Z,16.18
2023-05-30T22:45:35.725Z,16.15
2023-05-30T22:48:03.712Z,16.06
2023-05-30T22:50:30.706Z,16.10
2023-05-30T22:52:57.608Z,16.12
2023-05-30T22:55:24.566Z,16.16
2023-05-30T22:57:51.464Z,16.18
2023-05-30T23:00:18.786Z,16.08
2023-05-30T23:02:45.857Z,16.12
2023-05-30T23:05:13.057Z,16.16
2023-05-30T23:07:40.397Z,16.10
2023-05-30T23:10:08.256Z,16.14
2023-05-30T23:12:35.439Z,16.08
2023-05-30T23:15:02.601Z,16.12
2023-05-30T23:17:29.550Z,16.10
2023-05-30T23:19:56.883Z,16.23
2023-05-30T23:22:23.797Z,16.20
2023-05-30T23:24:50.929Z,16.16
2023-05-30T23:27:18.046Z,16.12
2023-05-30T23:29:45.081Z,16.09
2023-05-30T23:32:12.053Z,16.14
2023-05-30T23:34:39.329Z,16.00
2023-05-30T23:37:06.382Z,16.12
2023-05-30T23:39:33.424Z,16.05
2023-05-30T23:42:00.538Z,16.02
2023-05-30T23:44:27.490Z,15.99
2023-05-30T23:46:54.423Z,16.02
2023-05-30T23:49:21.437Z,15.99
2023-05-30T23:51:48.882Z,15.85
2023-05-30T23:54:15.903Z,15.91
2023-05-30T23:56:42.832Z,15.82
2023-05-30T23:59:09.711Z,15.88
